createdAt,value
2023-05-16T00:01:30.322Z,78.93
2023-05-16T00:03:58.448Z,79.17
2023-05-16T00:06:26.573Z,79.17
2023-05-16T00:08:54.558Z,79.36
2023-05-16T00:11:22.410Z,79.53
2023-05-16T00:13:51.662Z,79.66
2023-05-16T00:16:21.645Z,79.61
2023-05-16T00:18:49.880Z,79.73
2023-05-16T00:21:17.833Z,79.87
2023-05-16T00:23:45.743Z,79.95
2023-05-16T00:26:13.781Z,79.65
2023-05-16T00:28:41.689Z,79.49
2023-05-16T00:31:09.981Z,79.49
2023-05-16T00:33:37.766Z,79.48
2023-05-16T00:36:05.906Z,79.59
2023-05-16T00:38:33.719Z,79.69
2023-05-16T00:41:01.808Z,79.86
2023-05-16T00:43:29.632Z,80.09
2023-05-16T00:45:58.158Z,80.24
2023-05-16T00:48:26.337Z,79.97
2023-05-16T00:50:54.334Z,79.99
2023-05-16T00:53:22.981Z,80.23
2023-05-16T00:55:51.623Z,80.32
2023-05-16T00:58:19.752Z,80.27
2023-05-16T01:00:48.807Z,80.55
2023-05-16T01:03:18.382Z,80.52
2023-05-16T01:05:46.970Z,80.83
2023-05-16T01:08:14.776Z,80.80
2023-05-16T01:11:18.657Z,80.59
2023-05-16T01:14:23.853Z,80.35
2023-05-16T01:17:03.404Z,80.58
2023-05-16T01:19:34.150Z,80.67
2023-05-16T01:22:37.658Z,80.76
2023-05-16T01:25:07.924Z,80.84
2023-05-16T01:27:36.090Z,80.72
2023-05-16T01:30:15.515Z,80.93
2023-05-16T01:32:44.077Z,80.88
2023-05-16T01:35:14.710Z,80.99
2023-05-16T01:37:52.785Z,80.97
2023-05-16T01:40:31.282Z,81.23
2023-05-16T01:43:03.130Z,81.50
2023-05-16T01:45:35.264Z,81.19
2023-05-16T01:48:10.793Z,80.76
2023-05-16T01:50:44.871Z,80.58
2023-05-16T01:53:19.164Z,80.50
2023-05-16T01:55:49.670Z,80.63
2023-05-16T01:58:21.811Z,80.37
2023-05-16T02:00:49.709Z,80.45
2023-05-16T02:03:18.161Z,80.34
2023-05-16T02:05:46.139Z,80.18
2023-05-16T02:08:14.151Z,79.76
2023-05-16T02:10:42.158Z,79.98
2023-05-16T02:13:10.203Z,80.28
2023-05-16T02:15:38.160Z,80.26
2023-05-16T02:18:06.223Z,80.01
2023-05-16T02:20:34.224Z,79.91
2023-05-16T02:23:03.382Z,79.95
2023-05-16T02:25:31.211Z,80.23
2023-05-16T02:27:58.964Z,80.35
2023-05-16T02:30:26.893Z,80.72
2023-05-16T02:32:54.891Z,80.77
2023-05-16T02:35:22.913Z,80.67
2023-05-16T02:37:51.026Z,81.05
2023-05-16T02:40:18.997Z,81.23
2023-05-16T02:42:46.841Z,80.84
2023-05-16T02:45:14.802Z,80.51
2023-05-16T02:47:42.873Z,80.82
2023-05-16T02:50:10.927Z,80.72
2023-05-16T02:52:38.787Z,80.63
2023-05-16T02:57:38.392Z,80.52
2023-05-16T03:00:06.974Z,80.71
2023-05-16T03:02:34.992Z,80.87
2023-05-16T03:05:02.982Z,80.99
2023-05-16T03:07:30.857Z,80.92
2023-05-16T03:09:58.963Z,81.22
2023-05-16T03:12:26.863Z,81.25
2023-05-16T03:14:54.833Z,81.44
2023-05-16T03:17:22.756Z,81.81
2023-05-16T03:19:51.459Z,81.80
2023-05-16T03:22:19.401Z,81.88
2023-05-16T03:24:47.309Z,82.05
2023-05-16T03:27:15.275Z,81.98
2023-05-16T03:29:43.080Z,82.04
2023-05-16T03:32:11.848Z,81.92
2023-05-16T03:34:39.690Z,81.68
2023-05-16T03:37:08.414Z,81.97
2023-05-16T03:39:36.346Z,82.26
2023-05-16T03:42:04.450Z,82.43
2023-05-16T03:44:32.238Z,82.42
2023-05-16T03:47:00.103Z,82.78
2023-05-16T03:49:30.872Z,82.95
2023-05-16T03:51:58.864Z,82.79
2023-05-16T03:54:27.088Z,83.17
2023-05-16T03:56:55.053Z,83.05
2023-05-16T03:59:22.992Z,82.82
2023-05-16T04:01:50.838Z,82.88
2023-05-16T04:04:18.632Z,82.61
2023-05-16T04:06:46.499Z,82.43
2023-05-16T04:09:14.266Z,81.85
2023-05-16T04:11:42.096Z,81.96
2023-05-16T04:14:09.993Z,81.78
2023-05-16T04:16:37.896Z,81.71
2023-05-16T04:19:05.893Z,81.62
2023-05-16T04:21:33.861Z,81.31
2023-05-16T04:24:02.009Z,81.37
2023-05-16T04:26:30.381Z,81.31
2023-05-16T04:29:00.140Z,81.19
2023-05-16T04:31:28.413Z,80.64
2023-05-16T04:33:56.282Z,80.96
2023-05-16T04:36:24.289Z,81.26
2023-05-16T04:38:52.545Z,81.06
2023-05-16T04:41:20.414Z,81.25
2023-05-16T04:43:48.673Z,81.32
2023-05-16T04:46:16.723Z,81.15
2023-05-16T04:48:44.593Z,81.33
2023-05-16T04:51:12.515Z,81.33
2023-05-16T04:53:40.337Z,81.23
2023-05-16T04:56:08.208Z,81.39
2023-05-16T04:58:36.109Z,81.01
2023-05-16T05:01:04.356Z,81.33
2023-05-16T05:03:32.288Z,81.60
2023-05-16T05:06:00.134Z,81.79
2023-05-16T05:08:28.015Z,81.69
2023-05-16T05:10:56.499Z,82.00
2023-05-16T05:13:24.425Z,81.79
2023-05-16T05:15:52.541Z,82.17
2023-05-16T05:18:20.462Z,82.21
2023-05-16T05:20:48.384Z,81.97
2023-05-16T05:23:16.228Z,81.86
2023-05-16T05:25:44.128Z,81.90
2023-05-16T05:28:12.194Z,81.78
2023-05-16T05:30:42.292Z,82.00
2023-05-16T05:33:11.780Z,82.19
2023-05-16T05:35:39.780Z,82.27
2023-05-16T05:38:08.061Z,82.33
2023-05-16T05:40:35.910Z,82.33
2023-05-16T05:43:03.928Z,82.18
2023-05-16T05:45:31.830Z,82.30
2023-05-16T05:47:59.813Z,82.61
2023-05-16T05:50:27.817Z,82.46
2023-05-16T05:52:56.208Z,82.65
2023-05-16T05:55:24.129Z,82.73
2023-05-16T05:57:52.244Z,82.77
2023-05-16T06:00:20.185Z,82.66
2023-05-16T06:02:48.836Z,82.67
2023-05-16T06:05:16.830Z,82.84
2023-05-16T06:07:44.752Z,82.97
2023-05-16T06:10:12.661Z,82.92
2023-05-16T06:12:40.599Z,82.80
2023-05-16T06:15:10.161Z,82.82
2023-05-16T06:17:38.668Z,82.59
2023-05-16T06:20:07.320Z,82.80
2023-05-16T06:22:35.235Z,82.90
2023-05-16T06:25:03.520Z,83.05
2023-05-16T06:27:31.332Z,83.22
2023-05-16T06:29:59.137Z,83.18
2023-05-16T06:32:27.060Z,83.37
2023-05-16T06:34:55.011Z,83.48
2023-05-16T06:37:23.599Z,83.71
2023-05-16T06:39:51.422Z,83.85
2023-05-16T06:42:20.529Z,84.20
2023-05-16T06:44:48.519Z,84.49
2023-05-16T06:47:16.820Z,84.35
2023-05-16T06:49:44.765Z,84.63
2023-05-16T06:52:12.830Z,84.46
2023-05-16T06:54:40.631Z,84.58
2023-05-16T06:57:11.521Z,84.24
2023-05-16T06:59:39.988Z,84.21
2023-05-16T07:02:07.798Z,84.48
2023-05-16T07:04:38.018Z,84.41
2023-05-16T07:07:07.861Z,84.51
2023-05-16T07:09:35.838Z,84.57
2023-05-16T07:12:03.786Z,84.38
2023-05-16T07:14:31.839Z,84.58
2023-05-16T07:16:59.899Z,84.89
2023-05-16T07:19:27.966Z,85.19
2023-05-16T07:21:56.132Z,85.66
2023-05-16T07:24:23.920Z,85.75
2023-05-16T07:26:51.889Z,85.76
2023-05-16T07:29:19.784Z,86.18
2023-05-16T07:31:47.663Z,86.15
2023-05-16T07:34:15.568Z,85.87
2023-05-16T07:36:43.430Z,86.03
2023-05-16T07:39:11.293Z,86.32
2023-05-16T07:41:39.262Z,86.41
2023-05-16T07:44:07.256Z,86.64
2023-05-16T07:46:35.472Z,86.68
2023-05-16T07:49:03.391Z,86.62
2023-05-16T07:51:32.000Z,86.59
2023-05-16T07:53:59.942Z,86.46
2023-05-16T07:56:28.001Z,86.52
2023-05-16T07:58:56.128Z,86.55
2023-05-16T08:01:24.002Z,86.32
2023-05-16T08:03:53.702Z,86.48
2023-05-16T08:06:21.693Z,86.32
2023-05-16T08:08:49.552Z,86.16
2023-05-16T08:11:19.018Z,86.19
2023-05-16T08:13:46.943Z,86.22
2023-05-16T08:16:14.966Z,86.45
2023-05-16T08:18:42.953Z,86.46
2023-05-16T08:21:10.931Z,86.38
2023-05-16T08:23:38.800Z,86.64
2023-05-16T08:26:06.679Z,86.59
2023-05-16T08:28:34.776Z,86.67
2023-05-16T08:31:02.685Z,86.28
2023-05-16T08:33:30.721Z,86.02
2023-05-16T08:35:58.946Z,86.23
2023-05-16T08:38:26.803Z,86.42
2023-05-16T08:40:54.820Z,86.21
2023-05-16T08:43:23.033Z,86.21
2023-05-16T08:45:50.971Z,86.02
2023-05-16T08:48:23.602Z,86.11
2023-05-16T08:50:51.787Z,85.99
2023-05-16T08:53:31.858Z,86.00
2023-05-16T08:56:01.350Z,86.29
2023-05-16T08:58:30.186Z,86.37
2023-05-16T09:00:58.390Z,86.45
2023-05-16T09:03:29.090Z,86.25
2023-05-16T09:05:57.890Z,86.14
2023-05-16T09:08:26.429Z,86.15
2023-05-16T09:10:54.873Z,86.14
2023-05-16T09:13:22.704Z,86.34
2023-05-16T09:16:10.898Z,86.11
2023-05-16T09:18:59.709Z,85.87
2023-05-16T09:21:34.953Z,86.06
2023-05-16T09:24:10.108Z,86.13
2023-05-16T09:26:39.427Z,86.25
2023-05-16T09:29:11.985Z,86.47
2023-05-16T09:31:41.177Z,86.82
2023-05-16T09:34:11.358Z,86.85
2023-05-16T09:36:40.665Z,86.50
2023-05-16T09:39:10.057Z,86.51
2023-05-16T09:41:37.951Z,86.37
2023-05-16T09:44:06.806Z,86.10
2023-05-16T09:46:36.265Z,86.06
2023-05-16T09:49:04.296Z,85.74
2023-05-16T09:51:32.450Z,85.61
2023-05-16T09:54:00.659Z,85.33
2023-05-16T09:56:30.173Z,85.78
2023-05-16T09:58:58.066Z,85.84
2023-05-16T10:01:26.169Z,85.71
2023-05-16T10:03:54.200Z,85.49
2023-05-16T10:06:22.889Z,85.16
2023-05-16T10:08:51.790Z,85.00
2023-05-16T10:11:20.051Z,85.56
2023-05-16T10:13:53.297Z,85.00
2023-05-16T10:16:24.377Z,83.71
2023-05-16T10:18:53.254Z,83.19
2023-05-16T10:21:23.588Z,82.88
2023-05-16T10:23:53.370Z,82.86
2023-05-16T10:26:23.635Z,82.55
2023-05-16T10:28:52.228Z,81.62
2023-05-16T10:31:21.014Z,80.96
2023-05-16T10:33:49.077Z,80.51
2023-05-16T10:36:18.400Z,80.18
2023-05-16T10:38:46.943Z,80.40
2023-05-16T10:41:15.323Z,80.11
2023-05-16T10:43:46.509Z,80.33
2023-05-16T10:46:14.986Z,79.96
2023-05-16T10:48:43.337Z,79.61
2023-05-16T10:51:23.383Z,80.04
2023-05-16T10:53:55.293Z,80.12
2023-05-16T10:56:27.425Z,79.69
2023-05-16T10:58:56.950Z,78.83
2023-05-16T11:01:28.212Z,77.87
2023-05-16T11:03:59.837Z,77.36
2023-05-16T11:06:43.320Z,76.82
2023-05-16T11:09:14.235Z,76.77
2023-05-16T11:11:48.690Z,76.65
2023-05-16T11:14:33.151Z,76.46
2023-05-16T11:17:07.774Z,76.04
2023-05-16T11:19:41.859Z,75.83
2023-05-16T11:22:19.414Z,75.61
2023-05-16T11:25:00.334Z,75.45
2023-05-16T11:27:34.189Z,75.30
2023-05-16T11:30:05.154Z,75.04
2023-05-16T11:32:37.994Z,75.28
2023-05-16T11:35:09.597Z,75.56
2023-05-16T11:37:42.156Z,75.34
2023-05-16T11:40:12.343Z,75.61
2023-05-16T11:42:47.653Z,76.20
2023-05-16T11:45:17.759Z,76.55
2023-05-16T11:47:48.406Z,76.65
2023-05-16T11:50:22.065Z,75.79
2023-05-16T11:52:54.615Z,75.97
2023-05-16T11:55:40.132Z,76.01
2023-05-16T11:58:10.458Z,76.01
2023-05-16T12:00:47.908Z,76.04
2023-05-16T12:03:16.160Z,75.95
2023-05-16T12:05:55.431Z,76.07
2023-05-16T12:08:24.685Z,76.38
2023-05-16T12:10:54.082Z,76.58
2023-05-16T12:13:24.280Z,76.91
2023-05-16T12:15:55.836Z,76.47
2023-05-16T12:18:25.128Z,76.94
2023-05-16T12:20:53.387Z,77.43
2023-05-16T12:23:21.422Z,77.48
2023-05-16T12:25:49.648Z,77.35
2023-05-16T12:28:17.787Z,76.82
2023-05-16T12:30:48.084Z,75.99
2023-05-16T12:33:19.274Z,75.54
2023-05-16T12:35:48.010Z,74.65
2023-05-16T12:38:17.768Z,74.34
2023-05-16T12:40:47.152Z,73.45
2023-05-16T12:43:23.161Z,71.85
2023-05-16T12:45:56.559Z,72.05
2023-05-16T12:48:30.597Z,71.28
2023-05-16T12:51:10.516Z,71.37
2023-05-16T12:53:57.668Z,72.24
2023-05-16T12:56:29.927Z,72.24
2023-05-16T12:58:59.967Z,71.22
2023-05-16T13:01:27.941Z,70.86
2023-05-16T13:03:56.103Z,71.21
2023-05-16T13:06:24.108Z,70.77
2023-05-16T13:08:52.181Z,70.62
2023-05-16T13:11:20.047Z,71.00
2023-05-16T13:13:48.082Z,70.78
2023-05-16T13:16:16.556Z,70.88
2023-05-16T13:18:44.590Z,70.74
2023-05-16T13:21:12.396Z,69.92
2023-05-16T13:23:40.183Z,69.57
2023-05-16T13:26:08.299Z,69.49
2023-05-16T13:28:36.572Z,69.37
2023-05-16T13:31:04.661Z,69.27
2023-05-16T13:33:32.824Z,68.73
2023-05-16T13:36:00.914Z,68.65
2023-05-16T13:38:28.873Z,68.51
2023-05-16T13:40:56.680Z,68.45
2023-05-16T13:43:24.538Z,68.64
2023-05-16T13:45:52.790Z,69.07
2023-05-16T13:48:20.953Z,68.91
2023-05-16T13:50:48.915Z,68.75
2023-05-16T13:53:16.694Z,69.25
2023-05-16T13:55:44.564Z,69.61
2023-05-16T13:58:12.491Z,70.05
2023-05-16T14:00:45.190Z,70.25
2023-05-16T14:03:13.917Z,70.43
2023-05-16T14:05:41.854Z,70.38
2023-05-16T14:08:09.863Z,70.63
2023-05-16T14:10:38.171Z,70.62
2023-05-16T14:13:06.316Z,70.78
2023-05-16T14:15:34.272Z,70.77
2023-05-16T14:18:05.567Z,70.11
2023-05-16T14:20:33.494Z,70.27
2023-05-16T14:23:01.372Z,69.75
2023-05-16T14:25:30.288Z,69.75
2023-05-16T14:27:58.624Z,69.86
2023-05-16T14:30:27.613Z,69.97
2023-05-16T14:32:56.276Z,70.01
2023-05-16T14:35:24.293Z,70.09
2023-05-16T14:37:52.121Z,70.21
2023-05-16T14:40:21.778Z,70.26
2023-05-16T14:42:52.390Z,70.22
2023-05-16T14:45:21.884Z,70.34
2023-05-16T14:47:49.732Z,70.38
2023-05-16T14:50:17.666Z,70.64
2023-05-16T14:52:45.461Z,70.85
2023-05-16T14:55:13.417Z,70.83
2023-05-16T14:57:43.358Z,70.93
2023-05-16T15:00:17.337Z,71.08
2023-05-16T15:02:45.272Z,71.14
2023-05-16T15:05:13.330Z,71.20
2023-05-16T15:07:41.485Z,71.21
2023-05-16T15:10:09.994Z,71.12
2023-05-16T15:12:40.911Z,71.21
2023-05-16T15:15:13.013Z,71.39
2023-05-16T15:17:42.495Z,71.22
2023-05-16T15:20:13.482Z,71.58
2023-05-16T15:22:41.697Z,71.34
2023-05-16T15:25:11.028Z,71.18
2023-05-16T15:27:41.450Z,71.10
2023-05-16T15:30:09.634Z,71.06
2023-05-16T15:32:37.730Z,71.46
2023-05-16T15:35:06.276Z,71.67
2023-05-16T15:37:34.984Z,71.83
2023-05-16T15:40:05.131Z,72.04
2023-05-16T15:42:33.087Z,72.13
2023-05-16T15:45:01.084Z,72.40
2023-05-16T15:47:28.936Z,72.49
2023-05-16T15:49:56.907Z,72.38
2023-05-16T15:52:24.896Z,72.77
2023-05-16T15:54:52.872Z,73.07
2023-05-16T15:57:20.884Z,73.31
2023-05-16T15:59:48.805Z,74.05
2023-05-16T16:02:16.883Z,74.59
2023-05-16T16:04:44.842Z,74.82
2023-05-16T16:07:12.894Z,75.14
2023-05-16T16:09:41.010Z,75.67
2023-05-16T16:12:09.093Z,75.80
2023-05-16T16:14:37.082Z,76.17
2023-05-16T16:17:05.067Z,76.26
2023-05-16T16:19:32.891Z,76.44
2023-05-16T16:22:00.745Z,76.71
2023-05-16T16:24:28.784Z,76.97
2023-05-16T16:26:56.725Z,77.10
2023-05-16T16:29:26.249Z,77.21
2023-05-16T16:31:54.265Z,77.43
2023-05-16T16:34:23.387Z,77.85
2023-05-16T16:36:51.536Z,78.07
2023-05-16T16:39:19.955Z,78.22
2023-05-16T16:41:47.879Z,78.16
2023-05-16T16:44:15.912Z,78.30
2023-05-16T16:46:44.050Z,78.38
2023-05-16T16:49:11.992Z,78.76
2023-05-16T16:51:39.862Z,78.72
2023-05-16T16:54:07.978Z,78.77
2023-05-16T16:56:36.203Z,79.25
2023-05-16T16:59:04.265Z,79.32
2023-05-16T17:01:32.769Z,79.42
2023-05-16T17:04:02.046Z,79.90
2023-05-16T17:06:30.225Z,79.87
2023-05-16T17:09:02.508Z,80.12
2023-05-16T17:11:31.376Z,80.24
2023-05-16T17:13:59.406Z,80.15
2023-05-16T17:16:30.206Z,80.16
2023-05-16T17:18:58.179Z,80.61
2023-05-16T17:21:26.888Z,80.50
2023-05-16T17:23:55.208Z,80.72
2023-05-16T17:26:22.928Z,80.61
2023-05-16T17:28:50.965Z,80.76
2023-05-16T17:31:18.809Z,80.80
2023-05-16T17:33:46.742Z,80.85
2023-05-16T17:36:14.629Z,80.90
2023-05-16T17:38:42.752Z,81.10
2023-05-16T17:41:10.806Z,80.98
2023-05-16T17:43:38.580Z,80.91
2023-05-16T17:46:06.473Z,80.98
2023-05-16T17:48:34.605Z,81.12
2023-05-16T17:51:02.930Z,81.14
2023-05-16T17:53:30.856Z,81.15
2023-05-16T17:56:00.374Z,81.03
2023-05-16T17:58:28.449Z,81.26
2023-05-16T18:00:56.446Z,81.28
2023-05-16T18:03:24.437Z,81.29
2023-05-16T18:05:52.467Z,81.32
2023-05-16T18:08:20.622Z,81.70
2023-05-16T18:10:52.086Z,81.77
2023-05-16T18:13:21.981Z,82.31
2023-05-16T18:15:50.682Z,82.51
2023-05-16T18:18:18.704Z,82.89
2023-05-16T18:20:47.192Z,83.20
2023-05-16T18:23:15.059Z,83.65
2023-05-16T18:25:43.046Z,83.92
2023-05-16T18:28:10.923Z,83.70
2023-05-16T18:30:39.073Z,83.70
2023-05-16T18:33:06.942Z,83.73
2023-05-16T18:35:34.877Z,83.73
2023-05-16T18:38:04.139Z,83.63
2023-05-16T18:40:32.450Z,83.84
2023-05-16T18:43:00.409Z,84.08
2023-05-16T18:45:30.258Z,83.95
2023-05-16T18:47:58.630Z,84.01
2023-05-16T18:50:27.783Z,83.87
2023-05-16T18:52:57.697Z,84.02
2023-05-16T18:55:25.979Z,83.99
2023-05-16T18:57:54.157Z,83.99
2023-05-16T19:00:22.246Z,84.15
2023-05-16T19:02:50.616Z,84.68
2023-05-16T19:05:19.863Z,84.86
2023-05-16T19:07:48.029Z,85.00
2023-05-16T19:10:16.086Z,85.04
2023-05-16T19:12:46.953Z,84.98
2023-05-16T19:15:15.417Z,85.37
2023-05-16T19:17:43.538Z,85.26
2023-05-16T19:20:11.608Z,84.65
2023-05-16T19:22:39.513Z,84.24
2023-05-16T19:25:07.894Z,84.27
2023-05-16T19:27:35.881Z,84.26
2023-05-16T19:30:04.062Z,84.25
2023-05-16T19:32:32.033Z,84.27
2023-05-16T19:34:59.915Z,84.25
2023-05-16T19:37:27.887Z,84.39
2023-05-16T19:39:55.754Z,84.63
2023-05-16T19:42:23.592Z,84.63
2023-05-16T19:44:51.595Z,84.85
2023-05-16T19:47:19.585Z,84.65
2023-05-16T19:49:47.656Z,84.79
2023-05-16T19:52:15.507Z,84.60
2023-05-16T19:54:43.790Z,84.31
2023-05-16T19:57:11.884Z,84.29
2023-05-16T19:59:39.851Z,84.07
2023-05-16T20:02:07.794Z,84.05
2023-05-16T20:04:35.687Z,83.75
2023-05-16T20:07:03.549Z,83.37
2023-05-16T20:09:31.444Z,82.95
2023-05-16T20:11:59.676Z,82.84
2023-05-16T20:14:29.268Z,82.76
2023-05-16T20:16:57.324Z,82.03
2023-05-16T20:19:25.514Z,82.20
2023-05-16T20:21:53.576Z,82.21
2023-05-16T20:24:21.555Z,82.32
2023-05-16T20:26:49.950Z,82.11
2023-05-16T20:29:17.861Z,81.90
2023-05-16T20:31:45.742Z,81.51
2023-05-16T20:34:14.017Z,81.35
2023-05-16T20:36:42.055Z,81.01
2023-05-16T20:39:10.015Z,80.41
2023-05-16T20:41:37.961Z,80.36
2023-05-16T20:44:06.885Z,80.22
2023-05-16T20:46:34.896Z,80.07
2023-05-16T20:49:02.847Z,79.85
2023-05-16T20:51:31.114Z,79.91
2023-05-16T20:53:59.215Z,79.59
2023-05-16T20:56:27.065Z,79.55
2023-05-16T20:58:54.998Z,79.03
2023-05-16T21:01:22.977Z,78.63
2023-05-16T21:03:50.847Z,78.23
2023-05-16T21:06:18.743Z,77.74
2023-05-16T21:08:46.609Z,77.60
2023-05-16T21:11:14.553Z,77.44
2023-05-16T21:13:42.452Z,77.50
2023-05-16T21:16:12.602Z,77.22
2023-05-16T21:18:40.943Z,77.27
2023-05-16T21:21:09.028Z,77.06
2023-05-16T21:23:36.830Z,77.36
2023-05-16T21:26:04.711Z,77.36
2023-05-16T21:28:36.857Z,76.84
2023-05-16T21:31:08.227Z,76.73
2023-05-16T21:33:36.156Z,76.96
2023-05-16T21:36:04.366Z,77.16
2023-05-16T21:38:32.279Z,77.35
2023-05-16T21:41:00.387Z,77.66
2023-05-16T21:43:28.212Z,77.71
2023-05-16T21:45:56.007Z,77.69
2023-05-16T21:48:24.027Z,78.01
2023-05-16T21:50:52.075Z,77.74
2023-05-16T21:53:19.874Z,77.72
2023-05-16T21:55:47.884Z,77.57
2023-05-16T21:58:15.824Z,77.50
2023-05-16T22:00:43.730Z,77.84
2023-05-16T22:03:11.718Z,77.71
2023-05-16T22:05:39.781Z,77.61
2023-05-16T22:08:08.098Z,77.92
2023-05-16T22:10:36.195Z,77.96
2023-05-16T22:13:04.089Z,78.26
2023-05-16T22:15:31.931Z,78.24
2023-05-16T22:17:59.976Z,78.12
2023-05-16T22:20:28.333Z,78.00
2023-05-16T22:22:56.176Z,77.81
2023-05-16T22:25:24.085Z,77.53
2023-05-16T22:27:52.210Z,77.76
2023-05-16T22:30:20.114Z,77.85
2023-05-16T22:32:48.080Z,78.07
2023-05-16T22:35:16.168Z,78.18
2023-05-16T22:37:44.075Z,78.40
2023-05-16T22:40:12.025Z,78.26
2023-05-16T22:42:39.962Z,78.36
2023-05-16T22:45:08.377Z,78.79
2023-05-16T22:47:36.367Z,78.76
2023-05-16T22:50:04.726Z,78.71
2023-05-16T22:52:32.704Z,79.02
2023-05-16T22:55:02.056Z,79.01
2023-05-16T22:57:30.149Z,79.09
2023-05-16T23:00:00.283Z,79.02
2023-05-16T23:02:28.264Z,79.47
2023-05-16T23:04:56.561Z,79.60
2023-05-16T23:07:24.654Z,79.36
2023-05-16T23:09:52.514Z,79.43
2023-05-16T23:12:21.569Z,79.45
2023-05-16T23:14:49.434Z,79.65
2023-05-16T23:17:17.314Z,79.76
2023-05-16T23:19:45.174Z,79.68
2023-05-16T23:22:13.171Z,79.45
2023-05-16T23:24:41.044Z,79.48
2023-05-16T23:27:08.934Z,79.57
2023-05-16T23:29:37.101Z,79.64
2023-05-16T23:32:05.291Z,79.74
2023-05-16T23:34:33.442Z,79.69
2023-05-16T23:37:01.572Z,79.45
2023-05-16T23:39:29.591Z,79.60
2023-05-16T23:41:58.724Z,79.35
2023-05-16T23:44:26.654Z,79.52
2023-05-16T23:46:54.463Z,79.70
2023-05-16T23:49:22.472Z,79.81
2023-05-16T23:51:56.705Z,79.79
2023-05-16T23:54:26.482Z,79.46
2023-05-16T23:56:54.423Z,79.78
2023-05-16T23:59:22.499Z,79.52
